Corapeake, North Carolina
Current Conditions -  °F | °C
As of 5:35 AM on Thursday 23 Oct 2014 (Local Time) from KCPK Reporting Station
Overcast Overcast  
Wind Chill: 13°   Ceiling: 4000
Heat Index: 13°   Visibility: 10mi
Dew Point:   Wind: 8mph
Humidity: 72%   Direction: 280°W
Pressure: 29.89"   Gusts: NA
Location:  36.53°N, 76.58°W
Report Text: KCPK 230935Z AUTO 28007KT 10SM OVC040 13/08 A2989 RMK AO2
Loading
Personal Weather Stations






























Interactive Weather Map
Tropical Storm Tracking
New forecast layout! Learn more

10-Day Weather Forecast

Advertisements
Track Severe Weather on mobile